TAF UGAM 190400Z 1905/1911 VRB02KT 9999 OVC050
TEMPO 1905/1908 3000 BR
From batch tds/tafs/production/2023/3/19/h04_m36_tafs.cache.xml
Issued (12 months ago)
Forecasts
1905/1911 VRB02KT P6SM OVC5000

---
fcst_time_to: '2023-03-19T11:00:00Z'
sky_condition:
- sky_cover: OVC
  cloud_base_ft_agl: '5000'
wind_speed_kt: '2'
fcst_time_from: '2023-03-19T05:00:00Z'
wind_dir_degrees: '0'
visibility_statute_mi: '6.21'

TEMPO 1905/1908

---
wx_string: BR
fcst_time_to: '2023-03-19T08:00:00Z'
fcst_time_from: '2023-03-19T05:00:00Z'
change_indicator: TEMPO
visibility_statute_mi: '1.86'

talk